Guide — WDE7328 — position and weather

sailwx.info

Track history (hours):
 
Tides and Currents Weather Stations Pressure Air Temp Water Temp Dewpoint Dewpoint Depression Visibility Wind Speed Wind Dir Waves Ship Positions

Guide

Owner: CROWLEY MARINE SERVICES INC, SEATTLE, WA. More information available from US FCC via Universal Licensing System and Coast Guard Vessel Documentation Center.

Last reported at 2014-Oct-30 15:33 UTC. Time now 2014-Oct-30 15:55 UTC.
Position N 47°15' W 122°26'.

Length 34 m; draft 5.1 m.

Type: Tug. MMSI: 366759530.

Date/timePositionNaut miles runAvg speedWind from/ knotsBaromVisibWave heightAir tempDewpointWater temp
2014-Oct-30 15:33N 47°15' W 122°26'0 0.0
2014-Oct-30 14:33N 47°15' W 122°26'0 0.0
2014-Oct-30 13:33N 47°15' W 122°26'2 1.8
2014-Oct-30 12:33N 47°16' W 122°24'2 1.8
2014-Oct-30 11:33N 47°17' W 122°25'1 1.0
2014-Oct-30 10:33N 47°16' W 122°24'2 1.9
2014-Oct-30 09:33N 47°18' W 122°27'1 0.7
2014-Oct-30 08:33N 47°18' W 122°26'0 0.0
2014-Oct-30 07:33N 47°18' W 122°26'6 5.6
2014-Oct-30 06:33N 47°23' W 122°22'8 9.9
2014-Oct-30 05:42N 47°31' W 122°25'110.3
2014-Oct-30 05:33N 47°33' W 122°25'3 3.4
2014-Oct-30 04:33N 47°34' W 122°21'0 0.0
2014-Oct-30 04:32N 47°34' W 122°21'2 1.9
2014-Oct-30 03:33N 47°36' W 122°21'0 6.0
2014-Oct-30 03:32N 47°36' W 122°21'1 0.8
2014-Oct-30 02:33N 47°35' W 122°21'0 0.0
2014-Oct-30 02:32N 47°35' W 122°21'0 0.0
2014-Oct-30 01:33N 47°35' W 122°21'0 0.0
2014-Oct-30 01:32N 47°35' W 122°21'0 0.0
2014-Oct-30 00:33N 47°35' W 122°21'0 0.0
2014-Oct-30 00:32N 47°35' W 122°21'0 0.0
2014-Oct-29 23:33N 47°35' W 122°21'0 0.0
2014-Oct-29 23:31N 47°35' W 122°21'0 0.0
2014-Oct-29 22:33N 47°35' W 122°21'0 0.0
2014-Oct-29 22:31N 47°35' W 122°21'0 0.0
2014-Oct-29 21:33N 47°35' W 122°21'0 0.0
2014-Oct-29 21:31N 47°35' W 122°21'0 0.0
2014-Oct-29 20:33N 47°35' W 122°21'0 0.0
2014-Oct-29 20:31N 47°35' W 122°21'0 0.0
2014-Oct-29 19:33N 47°35' W 122°21'0 0.0
2014-Oct-29 19:10N 47°35' W 122°21'0 0.0
2014-Oct-29 18:33N 47°35' W 122°21'0 0.0
2014-Oct-29 18:30N 47°35' W 122°21'0 0.0
2014-Oct-29 17:33N 47°35' W 122°21'0 0.0
2014-Oct-29 17:30N 47°35' W 122°21'0 0.4
2014-Oct-29 16:33N 47°35' W 122°21'0 0.8
2014-Oct-29 16:30N 47°35' W 122°21'1 1.2
2014-Oct-29 15:33N 47°36' W 122°22'1 9.8
2014-Oct-29 15:30N 47°36' W 122°22'8 8.9
2014-Oct-29 14:33N 47°28' W 122°24'6 9.9
2014-Oct-29 14:00N 47°22' W 122°21'510.5
2014-Oct-29 13:33N 47°19' W 122°26'4 4.1
2014-Oct-29 12:33N 47°16' W 122°23'3 3.5
2014-Oct-29 11:33N 47°18' W 122°27'4 3.8
2014-Oct-29 10:33N 47°15' W 122°23'3 2.7
2014-Oct-29 09:33N 47°17' W 122°26'0 0.5
2014-Oct-29 08:33N 47°18' W 122°26'0 0.0
2014-Oct-29 07:31N 47°18' W 122°26'0 0.0
2014-Oct-29 06:33N 47°18' W 122°26'0 0.0
2014-Oct-29 05:32N 47°18' W 122°26'0 0.0
2014-Oct-29 04:33N 47°18' W 122°26'7 6.9
2014-Oct-29 03:33N 47°24' W 122°23'2 9.8
2014-Oct-29 03:19N 47°26' W 122°24'810.1
2014-Oct-29 02:33N 47°34' W 122°27'1 9.6
2014-Oct-29 02:28N 47°35' W 122°26'3 3.7
2014-Oct-29 01:33N 47°35' W 122°21'0 0.0
2014-Oct-29 01:28N 47°35' W 122°21'0 0.0
2014-Oct-29 00:33N 47°35' W 122°21'0 0.0
2014-Oct-29 00:28N 47°35' W 122°21'0 0.0
2014-Oct-28 23:32N 47°35' W 122°21'0 0.0
2014-Oct-28 23:16N 47°35' W 122°21'0 0.0
2014-Oct-28 22:33N 47°35' W 122°21'0 0.0
2014-Oct-28 21:59N 47°35' W 122°21'0 0.0
2014-Oct-28 21:33N 47°35' W 122°21'0 0.0
2014-Oct-28 21:29N 47°35' W 122°21'0 0.0
2014-Oct-28 20:33N 47°35' W 122°21'0 0.0
2014-Oct-28 20:28N 47°35' W 122°21'0 0.0
2014-Oct-28 19:33N 47°35' W 122°21'0 0.0
2014-Oct-28 19:28N 47°35' W 122°21'0 0.0
2014-Oct-28 18:33N 47°35' W 122°21'0 0.0
2014-Oct-28 18:32N 47°35' W 122°21'0 0.0
2014-Oct-28 17:33N 47°35' W 122°21'3 5.0
2014-Oct-28 16:54N 47°38' W 122°24'3 9.2
2014-Oct-28 16:33N 47°35' W 122°22'0 1.7
2014-Oct-28 16:30N 47°35' W 122°22'6 6.3
2014-Oct-28 15:33N 47°29' W 122°24'9 8.9
2014-Oct-28 14:33N 47°20' W 122°25'5 5.2
2014-Oct-28 13:33N 47°15' W 122°26'0 0.0
2014-Oct-28 12:33N 47°15' W 122°26'0 0.0
2014-Oct-28 11:33N 47°15' W 122°26'0 0.0
2014-Oct-28 10:33N 47°15' W 122°26'0 0.0
2014-Oct-28 09:33N 47°15' W 122°26'0 0.0
2014-Oct-28 08:33N 47°15' W 122°26'0 0.0
2014-Oct-28 07:33N 47°15' W 122°26'0 0.0
2014-Oct-28 06:33N 47°15' W 122°26'0 0.0
2014-Oct-28 05:33N 47°15' W 122°26'0 0.0
2014-Oct-28 04:33N 47°15' W 122°26'0 0.0
2014-Oct-28 03:33N 47°15' W 122°26'2 1.6
2014-Oct-28 02:32N 47°17' W 122°25'2 1.7
2014-Oct-28 01:31N 47°16' W 122°23'1 1.0
2014-Oct-28 00:33N 47°16' W 122°24'0 0.0
2014-Oct-27 23:33N 47°16' W 122°24'0 0.3
2014-Oct-27 22:33N 47°16' W 122°24'1 1.2
2014-Oct-27 21:33N 47°17' W 122°26'1 1.1
2014-Oct-27 20:33N 47°16' W 122°25'0 0.0
2014-Oct-27 19:32N 47°16' W 122°25'0 0.0
2014-Oct-27 18:33N 47°16' W 122°25'0 0.0
2014-Oct-27 17:55N 47°16' W 122°25'0 0.0
2014-Oct-27 17:33N 47°16' W 122°25'0 0.0
2014-Oct-27 16:33N 47°16' W 122°25'1 0.6
2014-Oct-27 15:33N 47°17' W 122°25'1 1.2
2014-Oct-27 14:33N 47°16' W 122°24'2 1.8
2014-Oct-27 13:33N 47°15' W 122°26'0 0.0
2014-Oct-27 12:33N 47°15' W 122°26'0 0.0
2014-Oct-27 11:33N 47°15' W 122°26'0 0.0
2014-Oct-27 10:33N 47°15' W 122°26'0 0.0
2014-Oct-27 09:33N 47°15' W 122°26'0 0.0
2014-Oct-27 08:33N 47°15' W 122°26'0 0.0
2014-Oct-27 07:33N 47°15' W 122°26'0 0.0
2014-Oct-27 06:32N 47°15' W 122°26'0 0.0
2014-Oct-27 05:33N 47°15' W 122°26'0 0.0
2014-Oct-27 04:33N 47°15' W 122°26'0 0.0
2014-Oct-27 03:33N 47°15' W 122°26'0 0.0
2014-Oct-27 02:33N 47°15' W 122°26'1 0.9
2014-Oct-27 01:33N 47°16' W 122°26'2 2.1
2014-Oct-27 00:33N 47°16' W 122°23'2 2.6
2014-Oct-26 23:37N 47°18' W 122°26'0 0.7
2014-Oct-26 23:33N 47°18' W 122°26'0 0.3
2014-Oct-26 22:33N 47°18' W 122°26'0 0.0
2014-Oct-26 21:33N 47°18' W 122°26'2 1.7
2014-Oct-26 20:33N 47°16' W 122°25'1 1.3
2014-Oct-26 19:33N 47°17' W 122°26'2 2.0
2014-Oct-26 18:33N 47°15' W 122°26'0 0.0
2014-Oct-26 17:33N 47°15' W 122°26'0 0.0
2014-Oct-26 16:33N 47°15' W 122°26'0 0.0
2014-Oct-26 15:33N 47°15' W 122°26'0 0.0
2014-Oct-26 14:33N 47°15' W 122°26'2 2.2
2014-Oct-26 13:33N 47°15' W 122°23'2 1.7
2014-Oct-26 12:33N 47°16' W 122°25'1 1.3
2014-Oct-26 11:40N 47°17' W 122°26'1 6.3
2014-Oct-26 11:33N 47°16' W 122°26'1 1.1
2014-Oct-26 10:33N 47°15' W 122°26'0 0.0
2014-Oct-26 10:10N 47°15' W 122°26'0 0.0
2014-Oct-26 09:33N 47°15' W 122°26'0 0.0
2014-Oct-26 08:33N 47°15' W 122°26'0 0.0
2014-Oct-26 07:33N 47°15' W 122°26'0 0.0
2014-Oct-26 06:33N 47°15' W 122°26'0 0.0
2014-Oct-26 05:33N 47°15' W 122°26'0 0.0
2014-Oct-26 04:33N 47°15' W 122°26'0 0.0
2014-Oct-26 03:33N 47°15' W 122°26'0 0.0
2014-Oct-26 02:33N 47°15' W 122°26'2 1.6
2014-Oct-26 01:33N 47°16' W 122°24'1 0.8
2014-Oct-26 00:33N 47°16' W 122°23'0 0.5
2014-Oct-25 23:33N 47°16' W 122°23'1 4.9
2014-Oct-25 23:19N 47°16' W 122°24'2 2.1
2014-Oct-25 22:33N 47°15' W 122°26'0 0.0
2014-Oct-25 21:33N 47°15' W 122°26'0 0.0
2014-Oct-25 20:33N 47°15' W 122°26'0 0.0
2014-Oct-25 19:33N 47°15' W 122°26'0 0.0
2014-Oct-25 18:33N 47°15' W 122°26'0 0.0
2014-Oct-25 17:33N 47°15' W 122°26'0 0.0
2014-Oct-25 16:33N 47°15' W 122°26'0 0.0
2014-Oct-25 15:33N 47°15' W 122°26'0 0.0
2014-Oct-25 14:33N 47°15' W 122°26'1 0.8
2014-Oct-25 13:33N 47°16' W 122°26'2 1.9
2014-Oct-25 12:33N 47°16' W 122°24'2 1.8
2014-Oct-25 11:33N 47°16' W 122°26'1 0.9
2014-Oct-25 10:33N 47°15' W 122°26'0 0.0
2014-Oct-25 09:33N 47°15' W 122°26'0 0.0
2014-Oct-25 08:33N 47°15' W 122°26'0 0.0
2014-Oct-25 07:33N 47°15' W 122°26'0 0.0
2014-Oct-25 06:33N 47°15' W 122°26'0 0.0
2014-Oct-25 05:33N 47°15' W 122°26'0 0.0
2014-Oct-25 04:33N 47°15' W 122°26'0 0.0
2014-Oct-25 03:33N 47°15' W 122°26'0 0.0
2014-Oct-25 02:33N 47°15' W 122°26'0 0.0
2014-Oct-25 01:33N 47°15' W 122°26'0 0.0
2014-Oct-25 00:33N 47°15' W 122°26'0 0.0
2014-Oct-24 23:33N 47°15' W 122°26'1 1.2
2014-Oct-24 22:33N 47°17' W 122°26'1 0.5
2014-Oct-24 21:33N 47°17' W 122°26'2 1.7
2014-Oct-24 20:33N 47°15' W 122°26'0 0.0
2014-Oct-24 19:32N 47°15' W 122°26'0 0.0
2014-Oct-24 18:33N 47°15' W 122°26'0 0.0
2014-Oct-24 17:33N 47°15' W 122°26'0 0.0
2014-Oct-24 16:33N 47°15' W 122°26'0 0.0
2014-Oct-24 15:33N 47°15' W 122°26'0 0.0
2014-Oct-24 14:33N 47°15' W 122°26'0 0.0
2014-Oct-24 13:33N 47°15' W 122°26'0 0.0
2014-Oct-24 12:33N 47°15' W 122°26'2 2.1
2014-Oct-24 11:33N 47°15' W 122°23'1 1.2
2014-Oct-24 10:33N 47°16' W 122°24'1 0.7
2014-Oct-24 09:33N 47°16' W 122°23'2 1.9
2014-Oct-24 08:33N 47°15' W 122°26'0 0.0
2014-Oct-24 07:33N 47°15' W 122°26'0 0.0
2014-Oct-24 06:32N 47°15' W 122°26'0 0.0
2014-Oct-24 05:32N 47°15' W 122°26'0 0.0
2014-Oct-24 04:33N 47°15' W 122°26'0 0.0
2014-Oct-24 03:33N 47°15' W 122°26'0 0.0
2014-Oct-24 02:33N 47°15' W 122°26'0 0.0
2014-Oct-24 01:33N 47°15' W 122°26'0 0.0
2014-Oct-24 00:33N 47°15' W 122°26'2 1.5
2014-Oct-23 23:33N 47°16' W 122°24'1 1.1
2014-Oct-23 22:36N 47°16' W 122°23'0 3.3
2014-Oct-23 22:33N 47°16' W 122°23'3 2.4
2014-Oct-23 21:29N 47°18' W 122°26'0 0.0
2014-Oct-23 20:19N 47°18' W 122°26'0 0.0
2014-Oct-23 19:33N 47°18' W 122°26'0 0.0
2014-Oct-23 18:32N 47°18' W 122°26'1 3.4
2014-Oct-23 18:15N 47°18' W 122°27'6 9.1
2014-Oct-23 17:33N 47°23' W 122°22'710.1
2014-Oct-23 16:51N 47°30' W 122°24'3 9.6
2014-Oct-23 16:33N 47°33' W 122°25'0 9.2
2014-Oct-23 16:31N 47°33' W 122°25'4 3.7
2014-Oct-23 15:33N 47°35' W 122°21'0 0.0
2014-Oct-23 15:31N 47°35' W 122°21'0 0.0
2014-Oct-23 14:33N 47°35' W 122°21'0 0.0
2014-Oct-23 14:30N 47°35' W 122°21'0 0.0
2014-Oct-23 13:33N 47°35' W 122°21'0 0.0
2014-Oct-23 13:30N 47°35' W 122°21'1 0.6
2014-Oct-23 12:33N 47°36' W 122°22'110.0
2014-Oct-23 12:30N 47°36' W 122°22'9 9.6
2014-Oct-23 11:33N 47°27' W 122°24'8 9.4
2014-Oct-23 10:45N 47°20' W 122°26'210.3
2014-Oct-23 10:33N 47°18' W 122°26'3 2.8
2014-Oct-23 09:33N 47°16' W 122°23'3 3.2
2014-Oct-23 08:35N 47°18' W 122°27'0 1.6
2014-Oct-23 08:33N 47°18' W 122°27'2 1.9
2014-Oct-23 07:33N 47°16' W 122°25'0 0.1
2014-Oct-23 06:33N 47°17' W 122°24'2 1.5
2014-Oct-23 05:33N 47°18' W 122°26'0 0.0
2014-Oct-23 04:33N 47°18' W 122°26'0 0.0
2014-Oct-23 03:33N 47°18' W 122°26'2 1.6
2014-Oct-23 02:33N 47°16' W 122°24'1 0.8
2014-Oct-23 01:33N 47°17' W 122°25'1 0.8
2014-Oct-23 00:33N 47°16' W 122°24'0 0.1
2014-Oct-22 23:33N 47°16' W 122°24'1 0.9
2014-Oct-22 22:33N 47°16' W 122°23'2 1.9
2014-Oct-22 21:33N 47°15' W 122°26'0 0.0
2014-Oct-22 20:33N 47°15' W 122°26'0 0.0
2014-Oct-22 19:33N 47°15' W 122°26'0 0.0
2014-Oct-22 18:33N 47°15' W 122°26'0 0.0
2014-Oct-22 17:33N 47°15' W 122°26'1 1.1
2014-Oct-22 16:33N 47°16' W 122°25'0 0.0
2014-Oct-22 15:33N 47°16' W 122°25'0 0.0
2014-Oct-22 14:33N 47°16' W 122°25'1 1.5
2014-Oct-22 13:33N 47°16' W 122°23'1 0.5
2014-Oct-22 12:32N 47°16' W 122°24'1 1.4
2014-Oct-22 11:33N 47°17' W 122°25'1 0.5
2014-Oct-22 10:33N 47°16' W 122°25'2 1.5
2014-Oct-22 09:33N 47°15' W 122°26'0 0.0
2014-Oct-22 08:33N 47°15' W 122°26'0 0.0
2014-Oct-22 07:33N 47°15' W 122°26'0 0.0
2014-Oct-22 06:33N 47°15' W 122°26'0 0.0
2014-Oct-22 05:33N 47°15' W 122°26'0 0.0
2014-Oct-22 04:33N 47°15' W 122°26'0 0.0
2014-Oct-22 03:33N 47°15' W 122°26'0 0.0
2014-Oct-22 02:33N 47°15' W 122°26'0 0.0
2014-Oct-22 01:33N 47°15' W 122°26'0 0.0
2014-Oct-22 00:33N 47°15' W 122°26'1 1.1
2014-Oct-21 23:33N 47°16' W 122°25'1 1.1
2014-Oct-21 22:33N 47°15' W 122°26'0 0.0
2014-Oct-21 21:33N 47°15' W 122°26'0 0.0
2014-Oct-21 20:33N 47°15' W 122°26'0 0.0
2014-Oct-21 19:33N 47°15' W 122°26'0 0.0
2014-Oct-21 18:33N 47°15' W 122°26'0 0.0
2014-Oct-21 17:33N 47°15' W 122°26'0 0.0
2014-Oct-21 16:33N 47°15' W 122°26'0 0.0
2014-Oct-21 15:33N 47°15' W 122°26'0 0.0
2014-Oct-21 14:33N 47°15' W 122°26'0 0.0
2014-Oct-21 13:33N 47°15' W 122°26'1 1.2
2014-Oct-21 12:33N 47°17' W 122°26'0 0.4
2014-Oct-21 11:33N 47°17' W 122°26'1 4.8
2014-Oct-21 11:25N 47°17' W 122°26'2 2.4
2014-Oct-21 10:33N 47°15' W 122°26'0 0.0
2014-Oct-21 09:33N 47°15' W 122°26'0 0.0
2014-Oct-21 08:33N 47°15' W 122°26'0 0.0
2014-Oct-21 07:33N 47°15' W 122°26'0 0.0
2014-Oct-21 06:33N 47°15' W 122°26'0 0.0
2014-Oct-21 05:33N 47°15' W 122°26'0 0.0
2014-Oct-21 04:33N 47°15' W 122°26'0 0.0
2014-Oct-21 03:33N 47°15' W 122°26'2 1.6
2014-Oct-21 02:33N 47°17' W 122°25'1 1.2
2014-Oct-21 01:33N 47°16' W 122°23'0 0.2
2014-Oct-21 00:33N 47°16' W 122°24'1 0.6
2014-Oct-20 23:33N 47°16' W 122°23'1 1.2
2014-Oct-20 22:33N 47°16' W 122°24'1 1.1
2014-Oct-20 21:33N 47°16' W 122°23'0 0.0
2014-Oct-20 20:33N 47°16' W 122°23'0 0.1
2014-Oct-20 19:33N 47°16' W 122°23'3 2.8
2014-Oct-20 18:33N 47°18' W 122°26'1 0.9
2014-Oct-20 17:33N 47°17' W 122°25'2 2.4
2014-Oct-20 16:33N 47°15' W 122°23'0 0.4
2014-Oct-20 15:33N 47°16' W 122°23'  
Track history (hours):
 
Tides and Currents Weather Stations Pressure Air Temp Water Temp Dewpoint Dewpoint Depression Visibility Wind Speed Wind Dir Waves Ship Positions

Guide

Owner: CROWLEY MARINE SERVICES INC, SEATTLE, WA. More information available from US FCC via Universal Licensing System and Coast Guard Vessel Documentation Center.

Last reported at 2014-Oct-30 15:33 UTC. Time now 2014-Oct-30 15:55 UTC.
Position N 47°15' W 122°26'.

Length 34 m; draft 5.1 m.

Type: Tug. MMSI: 366759530.

Date/timePositionNaut miles runAvg speedWind from/ knotsBaromVisibWave heightAir tempDewpointWater temp
2014-Oct-30 15:33N 47°15' W 122°26'0 0.0
2014-Oct-30 14:33N 47°15' W 122°26'0 0.0
2014-Oct-30 13:33N 47°15' W 122°26'2 1.8
2014-Oct-30 12:33N 47°16' W 122°24'2 1.8
2014-Oct-30 11:33N 47°17' W 122°25'1 1.0
2014-Oct-30 10:33N 47°16' W 122°24'2 1.9
2014-Oct-30 09:33N 47°18' W 122°27'1 0.7
2014-Oct-30 08:33N 47°18' W 122°26'0 0.0
2014-Oct-30 07:33N 47°18' W 122°26'6 5.6
2014-Oct-30 06:33N 47°23' W 122°22'8 9.9
2014-Oct-30 05:42N 47°31' W 122°25'110.3
2014-Oct-30 05:33N 47°33' W 122°25'3 3.4
2014-Oct-30 04:33N 47°34' W 122°21'0 0.0
2014-Oct-30 04:32N 47°34' W 122°21'2 1.9
2014-Oct-30 03:33N 47°36' W 122°21'0 6.0
2014-Oct-30 03:32N 47°36' W 122°21'1 0.8
2014-Oct-30 02:33N 47°35' W 122°21'0 0.0
2014-Oct-30 02:32N 47°35' W 122°21'0 0.0
2014-Oct-30 01:33N 47°35' W 122°21'0 0.0
2014-Oct-30 01:32N 47°35' W 122°21'0 0.0
2014-Oct-30 00:33N 47°35' W 122°21'0 0.0
2014-Oct-30 00:32N 47°35' W 122°21'0 0.0
2014-Oct-29 23:33N 47°35' W 122°21'0 0.0
2014-Oct-29 23:31N 47°35' W 122°21'0 0.0
2014-Oct-29 22:33N 47°35' W 122°21'0 0.0
2014-Oct-29 22:31N 47°35' W 122°21'0 0.0
2014-Oct-29 21:33N 47°35' W 122°21'0 0.0
2014-Oct-29 21:31N 47°35' W 122°21'0 0.0
2014-Oct-29 20:33N 47°35' W 122°21'0 0.0
2014-Oct-29 20:31N 47°35' W 122°21'0 0.0
2014-Oct-29 19:33N 47°35' W 122°21'0 0.0
2014-Oct-29 19:10N 47°35' W 122°21'0 0.0
2014-Oct-29 18:33N 47°35' W 122°21'0 0.0
2014-Oct-29 18:30N 47°35' W 122°21'0 0.0
2014-Oct-29 17:33N 47°35' W 122°21'0 0.0
2014-Oct-29 17:30N 47°35' W 122°21'0 0.4
2014-Oct-29 16:33N 47°35' W 122°21'0 0.8
2014-Oct-29 16:30N 47°35' W 122°21'1 1.2
2014-Oct-29 15:33N 47°36' W 122°22'1 9.8
2014-Oct-29 15:30N 47°36' W 122°22'8 8.9
2014-Oct-29 14:33N 47°28' W 122°24'6 9.9
2014-Oct-29 14:00N 47°22' W 122°21'510.5
2014-Oct-29 13:33N 47°19' W 122°26'4 4.1
2014-Oct-29 12:33N 47°16' W 122°23'3 3.5
2014-Oct-29 11:33N 47°18' W 122°27'4 3.8
2014-Oct-29 10:33N 47°15' W 122°23'3 2.7
2014-Oct-29 09:33N 47°17' W 122°26'0 0.5
2014-Oct-29 08:33N 47°18' W 122°26'0 0.0
2014-Oct-29 07:31N 47°18' W 122°26'0 0.0
2014-Oct-29 06:33N 47°18' W 122°26'0 0.0
2014-Oct-29 05:32N 47°18' W 122°26'0 0.0
2014-Oct-29 04:33N 47°18' W 122°26'7 6.9
2014-Oct-29 03:33N 47°24' W 122°23'2 9.8
2014-Oct-29 03:19N 47°26' W 122°24'810.1
2014-Oct-29 02:33N 47°34' W 122°27'1 9.6
2014-Oct-29 02:28N 47°35' W 122°26'3 3.7
2014-Oct-29 01:33N 47°35' W 122°21'0 0.0
2014-Oct-29 01:28N 47°35' W 122°21'0 0.0
2014-Oct-29 00:33N 47°35' W 122°21'0 0.0
2014-Oct-29 00:28N 47°35' W 122°21'0 0.0
2014-Oct-28 23:32N 47°35' W 122°21'0 0.0
2014-Oct-28 23:16N 47°35' W 122°21'0 0.0
2014-Oct-28 22:33N 47°35' W 122°21'0 0.0
2014-Oct-28 21:59N 47°35' W 122°21'0 0.0
2014-Oct-28 21:33N 47°35' W 122°21'0 0.0
2014-Oct-28 21:29N 47°35' W 122°21'0 0.0
2014-Oct-28 20:33N 47°35' W 122°21'0 0.0
2014-Oct-28 20:28N 47°35' W 122°21'0 0.0
2014-Oct-28 19:33N 47°35' W 122°21'0 0.0
2014-Oct-28 19:28N 47°35' W 122°21'0 0.0
2014-Oct-28 18:33N 47°35' W 122°21'0 0.0
2014-Oct-28 18:32N 47°35' W 122°21'0 0.0
2014-Oct-28 17:33N 47°35' W 122°21'3 5.0
2014-Oct-28 16:54N 47°38' W 122°24'3 9.2
2014-Oct-28 16:33N 47°35' W 122°22'0 1.7
2014-Oct-28 16:30N 47°35' W 122°22'6 6.3
2014-Oct-28 15:33N 47°29' W 122°24'9 8.9
2014-Oct-28 14:33N 47°20' W 122°25'5 5.2
2014-Oct-28 13:33N 47°15' W 122°26'0 0.0
2014-Oct-28 12:33N 47°15' W 122°26'0 0.0
2014-Oct-28 11:33N 47°15' W 122°26'0 0.0
2014-Oct-28 10:33N 47°15' W 122°26'0 0.0
2014-Oct-28 09:33N 47°15' W 122°26'0 0.0
2014-Oct-28 08:33N 47°15' W 122°26'0 0.0
2014-Oct-28 07:33N 47°15' W 122°26'0 0.0
2014-Oct-28 06:33N 47°15' W 122°26'0 0.0
2014-Oct-28 05:33N 47°15' W 122°26'0 0.0
2014-Oct-28 04:33N 47°15' W 122°26'0 0.0
2014-Oct-28 03:33N 47°15' W 122°26'2 1.6
2014-Oct-28 02:32N 47°17' W 122°25'2 1.7
2014-Oct-28 01:31N 47°16' W 122°23'1 1.0
2014-Oct-28 00:33N 47°16' W 122°24'0 0.0
2014-Oct-27 23:33N 47°16' W 122°24'0 0.3
2014-Oct-27 22:33N 47°16' W 122°24'1 1.2
2014-Oct-27 21:33N 47°17' W 122°26'1 1.1
2014-Oct-27 20:33N 47°16' W 122°25'0 0.0
2014-Oct-27 19:32N 47°16' W 122°25'0 0.0
2014-Oct-27 18:33N 47°16' W 122°25'0 0.0
2014-Oct-27 17:55N 47°16' W 122°25'0 0.0
2014-Oct-27 17:33N 47°16' W 122°25'0 0.0
2014-Oct-27 16:33N 47°16' W 122°25'1 0.6
2014-Oct-27 15:33N 47°17' W 122°25'1 1.2
2014-Oct-27 14:33N 47°16' W 122°24'2 1.8
2014-Oct-27 13:33N 47°15' W 122°26'0 0.0
2014-Oct-27 12:33N 47°15' W 122°26'0 0.0
2014-Oct-27 11:33N 47°15' W 122°26'0 0.0
2014-Oct-27 10:33N 47°15' W 122°26'0 0.0
2014-Oct-27 09:33N 47°15' W 122°26'0 0.0
2014-Oct-27 08:33N 47°15' W 122°26'0 0.0
2014-Oct-27 07:33N 47°15' W 122°26'0 0.0
2014-Oct-27 06:32N 47°15' W 122°26'0 0.0
2014-Oct-27 05:33N 47°15' W 122°26'0 0.0
2014-Oct-27 04:33N 47°15' W 122°26'0 0.0
2014-Oct-27 03:33N 47°15' W 122°26'0 0.0
2014-Oct-27 02:33N 47°15' W 122°26'1 0.9
2014-Oct-27 01:33N 47°16' W 122°26'2 2.1
2014-Oct-27 00:33N 47°16' W 122°23'2 2.6
2014-Oct-26 23:37N 47°18' W 122°26'0 0.7
2014-Oct-26 23:33N 47°18' W 122°26'0 0.3
2014-Oct-26 22:33N 47°18' W 122°26'0 0.0
2014-Oct-26 21:33N 47°18' W 122°26'2 1.7
2014-Oct-26 20:33N 47°16' W 122°25'1 1.3
2014-Oct-26 19:33N 47°17' W 122°26'2 2.0
2014-Oct-26 18:33N 47°15' W 122°26'0 0.0
2014-Oct-26 17:33N 47°15' W 122°26'0 0.0
2014-Oct-26 16:33N 47°15' W 122°26'0 0.0
2014-Oct-26 15:33N 47°15' W 122°26'0 0.0
2014-Oct-26 14:33N 47°15' W 122°26'2 2.2
2014-Oct-26 13:33N 47°15' W 122°23'2 1.7
2014-Oct-26 12:33N 47°16' W 122°25'1 1.3
2014-Oct-26 11:40N 47°17' W 122°26'1 6.3
2014-Oct-26 11:33N 47°16' W 122°26'1 1.1
2014-Oct-26 10:33N 47°15' W 122°26'0 0.0
2014-Oct-26 10:10N 47°15' W 122°26'0 0.0
2014-Oct-26 09:33N 47°15' W 122°26'0 0.0
2014-Oct-26 08:33N 47°15' W 122°26'0 0.0
2014-Oct-26 07:33N 47°15' W 122°26'0 0.0
2014-Oct-26 06:33N 47°15' W 122°26'0 0.0
2014-Oct-26 05:33N 47°15' W 122°26'0 0.0
2014-Oct-26 04:33N 47°15' W 122°26'0 0.0
2014-Oct-26 03:33N 47°15' W 122°26'0 0.0
2014-Oct-26 02:33N 47°15' W 122°26'2 1.6
2014-Oct-26 01:33N 47°16' W 122°24'1 0.8
2014-Oct-26 00:33N 47°16' W 122°23'0 0.5
2014-Oct-25 23:33N 47°16' W 122°23'1 4.9
2014-Oct-25 23:19N 47°16' W 122°24'2 2.1
2014-Oct-25 22:33N 47°15' W 122°26'0 0.0
2014-Oct-25 21:33N 47°15' W 122°26'0 0.0
2014-Oct-25 20:33N 47°15' W 122°26'0 0.0
2014-Oct-25 19:33N 47°15' W 122°26'0 0.0
2014-Oct-25 18:33N 47°15' W 122°26'0 0.0
2014-Oct-25 17:33N 47°15' W 122°26'0 0.0
2014-Oct-25 16:33N 47°15' W 122°26'0 0.0
2014-Oct-25 15:33N 47°15' W 122°26'0 0.0
2014-Oct-25 14:33N 47°15' W 122°26'1 0.8
2014-Oct-25 13:33N 47°16' W 122°26'2 1.9
2014-Oct-25 12:33N 47°16' W 122°24'2 1.8
2014-Oct-25 11:33N 47°16' W 122°26'1 0.9
2014-Oct-25 10:33N 47°15' W 122°26'0 0.0
2014-Oct-25 09:33N 47°15' W 122°26'0 0.0
2014-Oct-25 08:33N 47°15' W 122°26'0 0.0
2014-Oct-25 07:33N 47°15' W 122°26'0 0.0
2014-Oct-25 06:33N 47°15' W 122°26'0 0.0
2014-Oct-25 05:33N 47°15' W 122°26'0 0.0
2014-Oct-25 04:33N 47°15' W 122°26'0 0.0
2014-Oct-25 03:33N 47°15' W 122°26'0 0.0
2014-Oct-25 02:33N 47°15' W 122°26'0 0.0
2014-Oct-25 01:33N 47°15' W 122°26'0 0.0
2014-Oct-25 00:33N 47°15' W 122°26'0 0.0
2014-Oct-24 23:33N 47°15' W 122°26'1 1.2
2014-Oct-24 22:33N 47°17' W 122°26'1 0.5
2014-Oct-24 21:33N 47°17' W 122°26'2 1.7
2014-Oct-24 20:33N 47°15' W 122°26'0 0.0
2014-Oct-24 19:32N 47°15' W 122°26'0 0.0
2014-Oct-24 18:33N 47°15' W 122°26'0 0.0
2014-Oct-24 17:33N 47°15' W 122°26'0 0.0
2014-Oct-24 16:33N 47°15' W 122°26'0 0.0
2014-Oct-24 15:33N 47°15' W 122°26'0 0.0
2014-Oct-24 14:33N 47°15' W 122°26'0 0.0
2014-Oct-24 13:33N 47°15' W 122°26'0 0.0
2014-Oct-24 12:33N 47°15' W 122°26'2 2.1
2014-Oct-24 11:33N 47°15' W 122°23'1 1.2
2014-Oct-24 10:33N 47°16' W 122°24'1 0.7
2014-Oct-24 09:33N 47°16' W 122°23'2 1.9
2014-Oct-24 08:33N 47°15' W 122°26'0 0.0
2014-Oct-24 07:33N 47°15' W 122°26'0 0.0
2014-Oct-24 06:32N 47°15' W 122°26'0 0.0
2014-Oct-24 05:32N 47°15' W 122°26'0 0.0
2014-Oct-24 04:33N 47°15' W 122°26'0 0.0
2014-Oct-24 03:33N 47°15' W 122°26'0 0.0
2014-Oct-24 02:33N 47°15' W 122°26'0 0.0
2014-Oct-24 01:33N 47°15' W 122°26'0 0.0
2014-Oct-24 00:33N 47°15' W 122°26'2 1.5
2014-Oct-23 23:33N 47°16' W 122°24'1 1.1
2014-Oct-23 22:36N 47°16' W 122°23'0 3.3
2014-Oct-23 22:33N 47°16' W 122°23'3 2.4
2014-Oct-23 21:29N 47°18' W 122°26'0 0.0
2014-Oct-23 20:19N 47°18' W 122°26'0 0.0
2014-Oct-23 19:33N 47°18' W 122°26'0 0.0
2014-Oct-23 18:32N 47°18' W 122°26'1 3.4
2014-Oct-23 18:15N 47°18' W 122°27'6 9.1
2014-Oct-23 17:33N 47°23' W 122°22'710.1
2014-Oct-23 16:51N 47°30' W 122°24'3 9.6
2014-Oct-23 16:33N 47°33' W 122°25'0 9.2
2014-Oct-23 16:31N 47°33' W 122°25'4 3.7
2014-Oct-23 15:33N 47°35' W 122°21'0 0.0
2014-Oct-23 15:31N 47°35' W 122°21'0 0.0
2014-Oct-23 14:33N 47°35' W 122°21'0 0.0
2014-Oct-23 14:30N 47°35' W 122°21'0 0.0
2014-Oct-23 13:33N 47°35' W 122°21'0 0.0
2014-Oct-23 13:30N 47°35' W 122°21'1 0.6
2014-Oct-23 12:33N 47°36' W 122°22'110.0
2014-Oct-23 12:30N 47°36' W 122°22'9 9.6
2014-Oct-23 11:33N 47°27' W 122°24'8 9.4
2014-Oct-23 10:45N 47°20' W 122°26'210.3
2014-Oct-23 10:33N 47°18' W 122°26'3 2.8
2014-Oct-23 09:33N 47°16' W 122°23'3 3.2
2014-Oct-23 08:35N 47°18' W 122°27'0 1.6
2014-Oct-23 08:33N 47°18' W 122°27'2 1.9
2014-Oct-23 07:33N 47°16' W 122°25'0 0.1
2014-Oct-23 06:33N 47°17' W 122°24'2 1.5
2014-Oct-23 05:33N 47°18' W 122°26'0 0.0
2014-Oct-23 04:33N 47°18' W 122°26'0 0.0
2014-Oct-23 03:33N 47°18' W 122°26'2 1.6
2014-Oct-23 02:33N 47°16' W 122°24'1 0.8
2014-Oct-23 01:33N 47°17' W 122°25'1 0.8
2014-Oct-23 00:33N 47°16' W 122°24'0 0.1
2014-Oct-22 23:33N 47°16' W 122°24'1 0.9
2014-Oct-22 22:33N 47°16' W 122°23'2 1.9
2014-Oct-22 21:33N 47°15' W 122°26'0 0.0
2014-Oct-22 20:33N 47°15' W 122°26'0 0.0
2014-Oct-22 19:33N 47°15' W 122°26'0 0.0
2014-Oct-22 18:33N 47°15' W 122°26'0 0.0
2014-Oct-22 17:33N 47°15' W 122°26'1 1.1
2014-Oct-22 16:33N 47°16' W 122°25'0 0.0
2014-Oct-22 15:33N 47°16' W 122°25'0 0.0
2014-Oct-22 14:33N 47°16' W 122°25'1 1.5
2014-Oct-22 13:33N 47°16' W 122°23'1 0.5
2014-Oct-22 12:32N 47°16' W 122°24'1 1.4
2014-Oct-22 11:33N 47°17' W 122°25'1 0.5
2014-Oct-22 10:33N 47°16' W 122°25'2 1.5
2014-Oct-22 09:33N 47°15' W 122°26'0 0.0
2014-Oct-22 08:33N 47°15' W 122°26'0 0.0
2014-Oct-22 07:33N 47°15' W 122°26'0 0.0
2014-Oct-22 06:33N 47°15' W 122°26'0 0.0
2014-Oct-22 05:33N 47°15' W 122°26'0 0.0
2014-Oct-22 04:33N 47°15' W 122°26'0 0.0
2014-Oct-22 03:33N 47°15' W 122°26'0 0.0
2014-Oct-22 02:33N 47°15' W 122°26'0 0.0
2014-Oct-22 01:33N 47°15' W 122°26'0 0.0
2014-Oct-22 00:33N 47°15' W 122°26'1 1.1
2014-Oct-21 23:33N 47°16' W 122°25'1 1.1
2014-Oct-21 22:33N 47°15' W 122°26'0 0.0
2014-Oct-21 21:33N 47°15' W 122°26'0 0.0
2014-Oct-21 20:33N 47°15' W 122°26'0 0.0
2014-Oct-21 19:33N 47°15' W 122°26'0 0.0
2014-Oct-21 18:33N 47°15' W 122°26'0 0.0
2014-Oct-21 17:33N 47°15' W 122°26'0 0.0
2014-Oct-21 16:33N 47°15' W 122°26'0 0.0
2014-Oct-21 15:33N 47°15' W 122°26'0 0.0
2014-Oct-21 14:33N 47°15' W 122°26'0 0.0
2014-Oct-21 13:33N 47°15' W 122°26'1 1.2
2014-Oct-21 12:33N 47°17' W 122°26'0 0.4
2014-Oct-21 11:33N 47°17' W 122°26'1 4.8
2014-Oct-21 11:25N 47°17' W 122°26'2 2.4
2014-Oct-21 10:33N 47°15' W 122°26'0 0.0
2014-Oct-21 09:33N 47°15' W 122°26'0 0.0
2014-Oct-21 08:33N 47°15' W 122°26'0 0.0
2014-Oct-21 07:33N 47°15' W 122°26'0 0.0
2014-Oct-21 06:33N 47°15' W 122°26'0 0.0
2014-Oct-21 05:33N 47°15' W 122°26'0 0.0
2014-Oct-21 04:33N 47°15' W 122°26'0 0.0
2014-Oct-21 03:33N 47°15' W 122°26'2 1.6
2014-Oct-21 02:33N 47°17' W 122°25'1 1.2
2014-Oct-21 01:33N 47°16' W 122°23'0 0.2
2014-Oct-21 00:33N 47°16' W 122°24'1 0.6
2014-Oct-20 23:33N 47°16' W 122°23'1 1.2
2014-Oct-20 22:33N 47°16' W 122°24'1 1.1
2014-Oct-20 21:33N 47°16' W 122°23'0 0.0
2014-Oct-20 20:33N 47°16' W 122°23'0 0.1
2014-Oct-20 19:33N 47°16' W 122°23'3 2.8
2014-Oct-20 18:33N 47°18' W 122°26'1 0.9
2014-Oct-20 17:33N 47°17' W 122°25'2 2.4
2014-Oct-20 16:33N 47°15' W 122°23'0 0.4
2014-Oct-20 15:33N 47°16' W 122°23'  

Dump ship's entire track history